createdAt,value
2022-12-18T00:02:27.363Z,1049.63
2022-12-18T00:04:55.472Z,1051.13
2022-12-18T00:07:24.950Z,1122.57
2022-12-18T00:09:53.016Z,1058.80
2022-12-18T00:12:21.110Z,1079.60
2022-12-18T00:14:49.188Z,1229.27
2022-12-18T00:17:17.319Z,1133.37
2022-12-18T00:19:45.389Z,1081.20
2022-12-18T00:22:13.477Z,1068.57
2022-12-18T00:24:42.942Z,1043.73
2022-12-18T00:27:11.031Z,1123.73
2022-12-18T00:29:43.098Z,1050.60
2022-12-18T00:32:11.181Z,1350.47
2022-12-18T00:34:39.428Z,1177.23
2022-12-18T00:37:07.506Z,1347.33
2022-12-18T00:39:35.727Z,1344.17
2022-12-18T00:42:22.571Z,1405.73
2022-12-18T00:44:51.033Z,1284.70
2022-12-18T00:47:19.111Z,1368.67
2022-12-18T00:49:47.286Z,1372.13
2022-12-18T00:52:15.339Z,1456.73
2022-12-18T00:54:43.422Z,1314.87
2022-12-18T00:57:12.882Z,1234.00
2022-12-18T00:59:40.985Z,1243.47
2022-12-18T01:02:09.212Z,1259.43
2022-12-18T01:04:37.520Z,1195.60
2022-12-18T01:07:05.590Z,1260.50
2022-12-18T01:09:33.698Z,1082.30
2022-12-18T01:12:01.830Z,1151.23
2022-12-18T01:14:31.298Z,1048.07
2022-12-18T01:16:59.355Z,1105.33
2022-12-18T01:19:27.474Z,1269.33
2022-12-18T01:21:55.564Z,1278.73
2022-12-18T01:24:23.665Z,1183.83
2022-12-18T01:26:51.743Z,1137.63
2022-12-18T01:29:19.876Z,1071.17
2022-12-18T01:31:49.370Z,1137.63
2022-12-18T01:34:17.806Z,1173.90
2022-12-18T01:36:45.874Z,1112.67
2022-12-18T01:39:15.402Z,1129.07
2022-12-18T01:42:01.642Z,1113.93
2022-12-18T01:44:59.683Z,1351.07
2022-12-18T01:47:34.078Z,1179.90
2022-12-18T01:50:05.507Z,1218.87
2022-12-18T01:52:35.083Z,1147.53
2022-12-18T01:55:05.342Z,1312.50
2022-12-18T01:57:33.774Z,1485.27
2022-12-18T02:00:04.747Z,1406.27
2022-12-18T02:02:34.733Z,1235.33
2022-12-18T02:05:04.036Z,1223.07
2022-12-18T02:07:40.193Z,1728.40
2022-12-18T02:10:14.009Z,1232.73
2022-12-18T02:12:46.875Z,1077.40
2022-12-18T02:15:19.610Z,1276.87
2022-12-18T02:17:55.642Z,1183.83
2022-12-18T02:20:30.139Z,1248.90
2022-12-18T02:23:13.592Z,1141.83
2022-12-18T02:26:13.096Z,1040.23
2022-12-18T02:28:46.680Z,1095.50
2022-12-18T02:31:19.655Z,1074.47
2022-12-18T02:33:48.946Z,1103.37
2022-12-18T02:36:19.752Z,1059.83
2022-12-18T02:38:48.794Z,1003.10
2022-12-18T02:41:18.193Z,1033.00
2022-12-18T02:43:50.195Z,1155.57
2022-12-18T02:46:30.927Z,1163.90
2022-12-18T02:49:08.508Z,1068.80
2022-12-18T02:51:46.537Z,976.57
2022-12-18T02:54:27.022Z,1123.57
2022-12-18T02:56:58.609Z,1112.43
2022-12-18T02:59:35.996Z,1232.23
2022-12-18T03:02:21.014Z,1285.37
2022-12-18T03:04:55.086Z,1213.17
2022-12-18T03:07:39.055Z,1086.93
2022-12-18T03:10:10.949Z,1169.60
2022-12-18T03:12:44.615Z,1306.07
2022-12-18T03:15:19.085Z,1168.23
2022-12-18T03:17:52.748Z,1100.13
2022-12-18T03:20:23.470Z,1150.47
2022-12-18T03:22:57.649Z,1105.10
2022-12-18T03:25:28.918Z,1103.33
2022-12-18T03:28:00.822Z,1075.50
2022-12-18T03:30:33.296Z,1074.10
2022-12-18T03:33:07.707Z,1041.47
2022-12-18T03:35:39.510Z,1065.57
2022-12-18T03:38:07.763Z,1030.10
2022-12-18T03:40:42.767Z,1121.00
2022-12-18T03:43:15.788Z,1105.87
2022-12-18T03:45:53.383Z,1021.93
2022-12-18T03:48:30.234Z,1072.83
2022-12-18T03:51:01.217Z,1128.77
2022-12-18T03:53:39.429Z,1175.27
2022-12-18T03:56:09.534Z,951.40
2022-12-18T03:58:40.797Z,1147.93
2022-12-18T04:01:15.801Z,1273.80
2022-12-18T04:03:46.088Z,1201.87
2022-12-18T04:06:15.344Z,1343.27
2022-12-18T04:08:44.185Z,1130.30
2022-12-18T04:11:12.355Z,988.70
2022-12-18T04:13:41.463Z,1001.73
2022-12-18T04:16:11.500Z,1061.60
2022-12-18T04:18:39.674Z,1038.77
2022-12-18T04:21:07.794Z,1085.20
2022-12-18T04:23:36.063Z,1062.87
2022-12-18T04:26:04.222Z,1105.80
2022-12-18T04:28:32.315Z,1097.27
2022-12-18T04:31:00.428Z,1065.43
2022-12-18T04:33:30.006Z,1103.43
2022-12-18T04:35:58.114Z,1159.77
2022-12-18T04:38:26.262Z,1005.00
2022-12-18T04:40:54.335Z,1148.30
2022-12-18T04:43:22.579Z,1228.17
2022-12-18T04:45:50.723Z,1225.37
2022-12-18T04:48:18.831Z,1245.90
2022-12-18T04:50:49.273Z,1165.63
2022-12-18T04:53:17.528Z,1144.03
2022-12-18T04:55:45.621Z,1350.43
2022-12-18T04:58:13.813Z,1332.97
2022-12-18T05:00:41.887Z,1419.37
2022-12-18T05:03:10.027Z,1424.03
2022-12-18T05:05:38.150Z,1369.77
2022-12-18T05:08:07.774Z,1096.43
2022-12-18T05:10:38.366Z,1137.60
2022-12-18T05:13:06.706Z,1282.43
2022-12-18T05:15:35.754Z,1199.77
2022-12-18T05:18:05.280Z,1174.20
2022-12-18T05:20:33.776Z,1172.80
2022-12-18T05:23:01.862Z,1091.20
2022-12-18T05:25:31.304Z,1067.63
2022-12-18T05:27:59.453Z,1086.00
2022-12-18T05:30:28.569Z,1390.63
2022-12-18T05:32:56.825Z,1301.27
2022-12-18T05:35:24.966Z,1244.87
2022-12-18T05:37:53.078Z,1395.33
2022-12-18T05:40:21.125Z,1149.47
2022-12-18T05:42:50.604Z,1310.37
2022-12-18T05:45:18.783Z,1220.17
2022-12-18T05:47:46.879Z,1125.53
2022-12-18T05:50:14.947Z,1199.10
2022-12-18T05:52:43.032Z,1267.53
2022-12-18T05:55:11.179Z,1290.10
2022-12-18T05:57:39.272Z,1177.10
2022-12-18T06:00:10.730Z,1200.50
2022-12-18T06:02:38.943Z,1081.40
2022-12-18T06:05:07.868Z,1096.80
2022-12-18T06:07:35.967Z,1055.73
2022-12-18T06:10:04.444Z,1147.27
2022-12-18T06:12:34.468Z,1049.93
2022-12-18T06:15:02.924Z,1044.70
2022-12-18T06:17:33.077Z,1001.90
2022-12-18T06:20:02.205Z,1056.90
2022-12-18T06:22:30.312Z,1008.27
2022-12-18T06:24:58.597Z,1070.03
2022-12-18T06:27:26.930Z,1138.67
2022-12-18T06:29:55.033Z,1160.57
2022-12-18T06:32:23.197Z,1070.80
2022-12-18T06:34:52.689Z,1115.10
2022-12-18T06:37:20.966Z,1099.33
2022-12-18T06:39:49.069Z,1070.00
2022-12-18T06:42:17.096Z,1087.73
2022-12-18T06:44:45.223Z,1107.83
2022-12-18T06:47:13.353Z,1027.97
2022-12-18T06:49:41.463Z,1095.57
2022-12-18T06:52:10.975Z,1115.83
2022-12-18T06:54:39.271Z,1101.30
2022-12-18T06:57:07.340Z,1305.17
2022-12-18T06:59:35.555Z,1212.03
2022-12-18T07:02:03.745Z,1105.93
2022-12-18T07:04:32.604Z,1114.47
2022-12-18T07:07:00.687Z,1090.97
2022-12-18T07:09:30.150Z,1046.33
2022-12-18T07:11:58.185Z,1006.10
2022-12-18T07:14:27.419Z,1021.33
2022-12-18T07:16:55.565Z,1040.90
2022-12-18T07:19:23.722Z,1053.63
2022-12-18T07:21:52.599Z,963.73
2022-12-18T07:24:20.716Z,962.03
2022-12-18T07:26:50.462Z,1003.13
2022-12-18T07:29:18.563Z,1059.40
2022-12-18T07:31:46.955Z,1126.03
2022-12-18T07:34:16.346Z,1103.00
2022-12-18T07:36:44.549Z,1443.97
2022-12-18T07:39:13.481Z,1288.53
2022-12-18T07:41:46.676Z,1254.17
2022-12-18T07:44:16.710Z,1201.40
2022-12-18T07:46:44.765Z,1204.87
2022-12-18T07:49:12.838Z,1097.17
2022-12-18T07:51:41.221Z,1048.87
2022-12-18T07:54:09.314Z,1042.83
2022-12-18T07:56:37.379Z,1083.47
2022-12-18T07:59:05.473Z,1092.63
2022-12-18T08:01:35.823Z,1180.57
2022-12-18T08:04:03.987Z,1140.17
2022-12-18T08:06:32.068Z,1130.33
2022-12-18T08:09:00.232Z,1171.90
2022-12-18T08:11:29.748Z,1186.00
2022-12-18T08:13:58.445Z,1237.90
2022-12-18T08:16:27.066Z,1124.03
2022-12-18T08:18:57.073Z,1252.67
2022-12-18T08:21:27.710Z,1188.67
2022-12-18T08:23:57.531Z,1252.50
2022-12-18T08:26:27.287Z,1043.00
2022-12-18T08:28:56.216Z,1172.33
2022-12-18T08:31:24.613Z,1256.57
2022-12-18T08:33:53.754Z,1216.57
2022-12-18T08:36:24.855Z,1214.37
2022-12-18T08:38:53.794Z,1233.43
2022-12-18T08:41:22.628Z,1292.50
2022-12-18T08:44:08.778Z,1194.40
2022-12-18T08:46:38.822Z,1244.27
2022-12-18T08:49:08.315Z,1217.17
2022-12-18T08:51:38.019Z,1323.03
2022-12-18T08:54:07.266Z,1241.10
2022-12-18T08:56:35.655Z,1268.53
2022-12-18T08:59:05.441Z,1425.37
2022-12-18T09:01:33.760Z,1305.27
2022-12-18T09:04:03.823Z,1320.97
2022-12-18T09:06:32.941Z,1312.13
2022-12-18T09:09:03.060Z,1248.70
2022-12-18T09:11:32.637Z,1265.50
2022-12-18T09:14:02.126Z,1402.53
2022-12-18T09:16:32.593Z,1399.43
2022-12-18T09:19:01.887Z,1502.17
2022-12-18T09:21:32.318Z,1630.23
2022-12-18T09:24:05.273Z,1415.30
2022-12-18T09:26:37.755Z,1246.90
2022-12-18T09:29:08.259Z,1174.33
2022-12-18T09:31:36.647Z,1825.87
2022-12-18T09:34:04.810Z,1440.73
2022-12-18T09:36:32.877Z,1724.33
2022-12-18T09:39:06.330Z,1335.53
2022-12-18T09:41:48.303Z,1513.13
2022-12-18T09:44:22.273Z,1388.83
2022-12-18T09:46:56.734Z,1409.53
2022-12-18T09:49:28.454Z,1461.37
2022-12-18T09:51:59.879Z,1299.53
2022-12-18T09:54:34.899Z,1424.80
2022-12-18T09:57:04.480Z,1599.47
2022-12-18T09:59:36.428Z,1439.57
2022-12-18T10:02:18.964Z,1338.70
2022-12-18T10:04:56.428Z,1225.40
2022-12-18T10:07:32.104Z,1581.40
2022-12-18T10:10:07.224Z,1430.87
2022-12-18T10:12:44.698Z,1327.70
2022-12-18T10:15:18.670Z,1330.43
2022-12-18T10:17:53.644Z,1341.83
2022-12-18T10:20:29.475Z,1214.07
2022-12-18T10:23:03.593Z,1389.03
2022-12-18T10:25:36.864Z,1335.40
2022-12-18T10:28:17.547Z,1244.57
2022-12-18T10:30:46.069Z,1149.13
2022-12-18T10:33:15.827Z,1571.80
2022-12-18T10:35:44.682Z,1590.37
2022-12-18T10:38:25.372Z,1386.33
2022-12-18T10:40:55.456Z,1350.87
2022-12-18T10:43:27.162Z,1188.80
2022-12-18T10:46:15.549Z,1254.93
2022-12-18T10:48:55.031Z,1126.20
2022-12-18T10:51:25.934Z,1466.87
2022-12-18T10:53:57.810Z,1359.80
2022-12-18T10:56:28.423Z,1403.00
2022-12-18T10:59:02.811Z,1049.57
2022-12-18T11:01:49.271Z,1237.40
2022-12-18T11:04:20.642Z,1224.43
2022-12-18T11:06:57.974Z,1075.63
2022-12-18T11:09:28.643Z,1179.87
2022-12-18T11:12:00.195Z,1083.07
2022-12-18T11:14:31.514Z,1234.47
2022-12-18T11:19:55.789Z,1013.33
2022-12-18T11:22:28.743Z,1074.00
2022-12-18T11:27:54.713Z,1150.83
2022-12-18T11:30:29.560Z,1159.40
2022-12-18T11:33:06.126Z,1174.80
2022-12-18T11:35:46.536Z,1090.10
2022-12-18T11:38:23.860Z,941.47
2022-12-18T11:40:57.289Z,1289.50
2022-12-18T11:43:30.787Z,1196.27
2022-12-18T11:46:04.795Z,1006.53
2022-12-18T11:48:39.320Z,1310.93
2022-12-18T11:51:14.219Z,1051.67
2022-12-18T11:53:42.426Z,1157.70
2022-12-18T11:56:32.946Z,1052.80
2022-12-18T11:59:09.519Z,1096.30
2022-12-18T12:01:50.931Z,1217.27
2022-12-18T12:05:01.034Z,1598.60
2022-12-18T12:07:40.454Z,1383.43
2022-12-18T12:10:23.069Z,1369.63
2022-12-18T12:13:06.759Z,993.07
2022-12-18T12:15:45.241Z,1000.23
2022-12-18T12:18:26.414Z,973.40
2022-12-18T12:21:02.737Z,1065.17
2022-12-18T12:23:39.185Z,968.03
2022-12-18T12:26:10.915Z,1088.03
2022-12-18T12:29:03.866Z,1349.83
2022-12-18T12:31:45.107Z,1185.77
2022-12-18T12:34:20.152Z,1102.40
2022-12-18T12:37:03.993Z,1179.43
2022-12-18T12:39:36.652Z,1496.83
2022-12-18T12:42:25.619Z,1067.27
2022-12-18T12:44:57.737Z,1360.77
2022-12-18T12:47:32.837Z,1321.57
2022-12-18T12:50:06.313Z,1173.30
2022-12-18T12:52:41.990Z,841.40
2022-12-18T12:55:28.823Z,983.03
2022-12-18T12:58:07.803Z,934.67
2022-12-18T13:00:43.218Z,1335.07
2022-12-18T13:03:17.645Z,1415.57
2022-12-18T13:05:52.938Z,1078.70
2022-12-18T13:08:31.687Z,1113.97
2022-12-18T13:11:20.501Z,1369.57
2022-12-18T13:13:54.085Z,1178.50
2022-12-18T13:16:24.411Z,1455.47
2022-12-18T13:18:53.544Z,1133.73
2022-12-18T13:21:29.330Z,1101.43
2022-12-18T13:23:58.913Z,981.53
2022-12-18T13:26:36.462Z,1292.80
2022-12-18T13:29:07.141Z,974.00
2022-12-18T13:32:03.031Z,868.57
2022-12-18T13:34:33.321Z,1209.70
2022-12-18T13:37:35.575Z,1236.57
2022-12-18T13:40:56.296Z,963.57
2022-12-18T13:43:34.623Z,1488.47
2022-12-18T13:46:30.917Z,1417.03
2022-12-18T13:49:03.926Z,1657.87
2022-12-18T13:51:34.709Z,1168.90
2022-12-18T13:54:07.502Z,984.50
2022-12-18T13:56:46.073Z,1206.67
2022-12-18T13:59:23.221Z,1710.20
2022-12-18T14:01:56.000Z,1094.33
2022-12-18T14:04:28.015Z,872.10
2022-12-18T14:07:01.021Z,1301.00
2022-12-18T14:09:32.604Z,1999.90
2022-12-18T14:12:20.076Z,1395.07
2022-12-18T14:14:54.941Z,1527.13
2022-12-18T14:17:24.775Z,1817.27
2022-12-18T14:19:53.510Z,1762.63
2022-12-18T14:22:28.619Z,1999.90
2022-12-18T14:25:16.131Z,1999.90
2022-12-18T14:27:47.560Z,1999.90
2022-12-18T14:30:27.625Z,1671.53
2022-12-18T14:33:06.558Z,1274.30
2022-12-18T14:35:35.300Z,1999.90
2022-12-18T14:38:24.042Z,1934.60
2022-12-18T14:40:55.983Z,1999.90
2022-12-18T14:43:25.555Z,1512.43
2022-12-18T14:45:54.272Z,1999.90
2022-12-18T14:48:25.247Z,1658.07
2022-12-18T14:51:02.225Z,1900.23
2022-12-18T14:53:37.764Z,1982.53
2022-12-18T14:56:15.632Z,1998.03
2022-12-18T14:58:52.727Z,1999.90
2022-12-18T15:01:26.250Z,1999.90
2022-12-18T15:03:55.132Z,1999.90
2022-12-18T15:06:31.198Z,1832.33
2022-12-18T15:09:00.383Z,1840.00
2022-12-18T15:11:34.122Z,1613.23
2022-12-18T15:14:24.210Z,1974.07
2022-12-18T15:16:55.116Z,1669.93
2022-12-18T15:19:24.590Z,1999.90
2022-12-18T15:21:52.729Z,1999.90
2022-12-18T15:24:26.447Z,1966.03
2022-12-18T15:26:54.750Z,1215.97
2022-12-18T15:29:26.228Z,1884.30
2022-12-18T15:32:02.707Z,1678.33
2022-12-18T15:34:31.727Z,1690.40
2022-12-18T15:36:59.834Z,1581.30
2022-12-18T15:39:27.918Z,1576.03
2022-12-18T15:42:13.614Z,1358.27
2022-12-18T15:44:43.103Z,1133.20
2022-12-18T15:47:14.376Z,1812.10
2022-12-18T15:49:42.489Z,1413.33
2022-12-18T15:52:14.109Z,1999.90
2022-12-18T15:54:59.718Z,1320.27
2022-12-18T15:57:27.855Z,1230.20
2022-12-18T15:59:59.177Z,1704.87
2022-12-18T16:02:29.068Z,1226.00
2022-12-18T16:04:57.345Z,1782.20
2022-12-18T16:07:28.119Z,1979.70
2022-12-18T16:09:58.923Z,1138.67
2022-12-18T16:12:29.034Z,168.43
2022-12-18T16:14:58.468Z,1117.23
2022-12-18T16:17:26.591Z,1999.90
2022-12-18T16:19:55.001Z,1363.73
2022-12-18T16:22:24.652Z,1451.53
2022-12-18T16:24:54.146Z,1543.93
2022-12-18T16:27:23.789Z,1278.80
2022-12-18T16:29:52.287Z,1688.43
2022-12-18T16:32:23.536Z,1324.87
2022-12-18T16:34:52.615Z,1405.17
2022-12-18T16:37:20.778Z,1999.90
2022-12-18T16:39:48.852Z,1058.00
2022-12-18T16:42:20.290Z,1436.57
2022-12-18T16:44:50.042Z,1889.40
2022-12-18T16:47:19.110Z,1793.13
2022-12-18T16:49:51.718Z,1845.13
2022-12-18T16:52:20.178Z,1612.00
2022-12-18T16:54:48.424Z,1885.90
2022-12-18T16:57:18.805Z,1247.10
2022-12-18T16:59:47.495Z,1985.97
2022-12-18T17:02:18.371Z,1938.30
2022-12-18T17:04:54.279Z,1840.57
2022-12-18T17:07:22.438Z,1062.70
2022-12-18T17:09:51.279Z,1999.90
2022-12-18T17:12:19.478Z,1126.17
2022-12-18T17:14:47.727Z,1173.00
2022-12-18T17:17:23.785Z,1981.80
2022-12-18T17:19:53.805Z,1210.63
2022-12-18T17:22:23.096Z,1283.20
2022-12-18T17:24:51.240Z,1511.97
2022-12-18T17:27:19.365Z,1999.90
2022-12-18T17:29:48.807Z,1428.57
2022-12-18T17:32:17.596Z,1278.30
2022-12-18T17:34:46.019Z,1433.03
2022-12-18T17:37:15.790Z,1058.20
2022-12-18T17:39:43.886Z,1845.73
2022-12-18T17:42:14.938Z,1227.00
2022-12-18T17:44:43.901Z,1571.60
2022-12-18T17:47:13.131Z,1446.97
2022-12-18T17:49:41.559Z,1999.90
2022-12-18T17:52:09.799Z,1999.90
2022-12-18T17:54:41.954Z,1373.83
2022-12-18T17:57:10.350Z,1839.97
2022-12-18T17:59:38.464Z,1579.43
2022-12-18T18:02:06.730Z,1722.17
2022-12-18T18:04:34.931Z,1132.40
2022-12-18T18:07:03.091Z,1467.67
2022-12-18T18:09:31.251Z,1486.23
2022-12-18T18:12:18.180Z,1676.17
2022-12-18T18:14:46.335Z,1279.27
2022-12-18T18:17:14.738Z,1419.83
2022-12-18T18:19:43.286Z,1170.43
2022-12-18T18:22:13.982Z,1330.63
2022-12-18T18:24:43.721Z,1225.50
2022-12-18T18:27:13.159Z,1285.37
2022-12-18T18:29:41.658Z,1046.50
2022-12-18T18:32:09.815Z,1230.67
2022-12-18T18:34:38.164Z,1599.83
2022-12-18T18:37:06.824Z,1290.97
2022-12-18T18:39:34.981Z,1085.97
2022-12-18T18:42:03.365Z,1286.20
2022-12-18T18:44:33.130Z,1329.33
2022-12-18T18:47:01.703Z,1539.37
2022-12-18T18:49:31.983Z,1288.27
2022-12-18T18:52:00.305Z,1214.37
2022-12-18T18:54:28.417Z,1240.83
2022-12-18T18:57:19.315Z,1051.63
2022-12-18T18:59:47.257Z,1304.17
2022-12-18T19:02:16.526Z,1450.93
2022-12-18T19:04:46.753Z,1144.67
2022-12-18T19:07:22.546Z,1381.20
2022-12-18T19:10:04.825Z,1209.37
2022-12-18T19:12:51.503Z,1344.47
2022-12-18T19:15:21.682Z,1570.80
2022-12-18T19:17:49.843Z,1573.47
2022-12-18T19:20:18.581Z,1373.90
2022-12-18T19:22:50.718Z,1366.70
2022-12-18T19:25:37.582Z,1404.30
2022-12-18T19:28:12.052Z,1337.67
2022-12-18T19:30:58.562Z,1270.10
2022-12-18T19:33:44.618Z,1340.67
2022-12-18T19:36:15.778Z,1136.47
2022-12-18T19:38:45.459Z,1360.40
2022-12-18T19:41:15.019Z,1391.27
2022-12-18T19:43:43.309Z,1404.37
2022-12-18T19:46:15.670Z,1272.03
2022-12-18T19:48:45.276Z,1331.83
2022-12-18T19:51:16.750Z,1313.07
2022-12-18T19:53:45.034Z,1449.50
2022-12-18T19:56:16.004Z,1393.17
2022-12-18T19:58:45.129Z,1331.30
2022-12-18T20:01:16.879Z,1060.33
2022-12-18T20:03:51.596Z,1619.90
2022-12-18T20:06:26.434Z,981.60
2022-12-18T20:09:00.250Z,1369.63
2022-12-18T20:11:29.576Z,1320.33
2022-12-18T20:13:57.928Z,1561.33
2022-12-18T20:16:27.547Z,936.53
2022-12-18T20:18:55.749Z,1325.83
2022-12-18T20:21:25.229Z,1046.37
2022-12-18T20:23:54.879Z,1518.70
2022-12-18T20:26:23.284Z,1475.50
2022-12-18T20:28:51.654Z,1363.83
2022-12-18T20:31:19.941Z,1290.47
2022-12-18T20:33:51.035Z,1462.70
2022-12-18T20:36:23.604Z,909.67
2022-12-18T20:38:58.191Z,1152.20
2022-12-18T20:41:36.426Z,1257.43
2022-12-18T20:44:21.737Z,997.50
2022-12-18T20:46:54.936Z,1176.67
2022-12-18T20:49:25.852Z,1088.93
2022-12-18T20:51:56.462Z,1124.47
2022-12-18T20:54:26.707Z,953.30
2022-12-18T20:56:55.224Z,1004.93
2022-12-18T20:59:25.679Z,943.80
2022-12-18T21:01:54.794Z,983.90
2022-12-18T21:04:25.700Z,1280.03
2022-12-18T21:06:59.274Z,1173.23
2022-12-18T21:09:35.923Z,1132.37
2022-12-18T21:12:25.611Z,1260.53
2022-12-18T21:14:54.080Z,1439.60
2022-12-18T21:17:22.332Z,1145.13
2022-12-18T21:19:51.866Z,1077.37
2022-12-18T21:22:20.708Z,1264.00
2022-12-18T21:24:49.343Z,1035.30
2022-12-18T21:27:18.041Z,1072.47
2022-12-18T21:29:47.217Z,1423.23
2022-12-18T21:32:15.867Z,1248.67
2022-12-18T21:34:48.070Z,1083.17
2022-12-18T21:37:18.207Z,1023.53
2022-12-18T21:39:48.425Z,857.30
2022-12-18T21:42:33.924Z,625.50
2022-12-18T21:45:02.061Z,859.73
2022-12-18T21:47:30.423Z,864.70
2022-12-18T21:49:58.657Z,1181.60
2022-12-18T21:52:32.372Z,899.83
2022-12-18T21:55:09.372Z,1000.20
2022-12-18T21:57:39.197Z,700.97
2022-12-18T22:00:09.219Z,869.43
2022-12-18T22:02:39.737Z,1104.80
2022-12-18T22:05:08.812Z,933.43
2022-12-18T22:07:38.385Z,1208.37
2022-12-18T22:10:07.324Z,771.60
2022-12-18T22:12:43.742Z,959.93
2022-12-18T22:15:21.109Z,726.60
2022-12-18T22:17:50.321Z,1027.37
2022-12-18T22:20:19.954Z,1087.50
2022-12-18T22:22:51.763Z,745.13
2022-12-18T22:25:20.005Z,902.27
2022-12-18T22:28:08.097Z,734.43
2022-12-18T22:30:35.395Z,938.17
2022-12-18T22:33:03.917Z,816.33
2022-12-18T22:35:32.187Z,665.07
2022-12-18T22:38:01.710Z,719.97
2022-12-18T22:40:30.309Z,648.50
2022-12-18T22:42:58.620Z,942.67
2022-12-18T22:45:27.906Z,881.07
2022-12-18T22:47:56.119Z,984.67
2022-12-18T22:50:24.326Z,953.13
2022-12-18T22:52:52.402Z,735.73
2022-12-18T22:55:21.954Z,964.63
2022-12-18T22:57:50.909Z,801.10
2022-12-18T23:00:24.140Z,778.13
2022-12-18T23:02:59.391Z,794.50
2022-12-18T23:05:29.008Z,705.60
2022-12-18T23:07:57.083Z,613.03
2022-12-18T23:10:26.803Z,940.33
2022-12-18T23:12:54.850Z,935.47
2022-12-18T23:15:27.693Z,734.63
2022-12-18T23:17:57.691Z,925.03
2022-12-18T23:20:25.974Z,864.33
2022-12-18T23:22:54.327Z,816.07
2022-12-18T23:25:22.413Z,916.43
2022-12-18T23:27:51.949Z,867.67
2022-12-18T23:30:20.087Z,899.33
2022-12-18T23:32:48.340Z,955.43
2022-12-18T23:35:16.606Z,888.13
2022-12-18T23:38:00.954Z,901.73
2022-12-18T23:40:30.220Z,959.03
2022-12-18T23:43:00.364Z,880.97
2022-12-18T23:45:28.620Z,1059.70
2022-12-18T23:47:56.689Z,628.50
2022-12-18T23:50:29.477Z,696.70
2022-12-18T23:53:04.700Z,869.07
2022-12-18T23:55:33.577Z,681.93
2022-12-18T23:58:03.021Z,840.27
